Time;durP1;ratioP1;P1;durP2;ratioP2;P2;SDS_P1;SDS_P2;PMS_P1;PMS_P2;Temp;Humidity;BMP_temperature;BMP_pressure;BME280_temperature;BME280_humidity;BME280_pressure;Samples;Min_cycle;Max_cycle;Signal;HPM_P1;HPM_P2
2022/12/02 00:01:04;;;;;;;;;47.50;37.50;;;;;7.34;68.37;101807.22;5077210;27;45253;-60
2022/12/02 00:03:34;;;;;;;;;32.50;28.25;;;;;7.34;68.49;101809.00;5081358;27;45285;-60
2022/12/02 00:05:59;;;;;;;;;45.00;33.25;;;;;7.35;68.64;101806.31;5092268;27;45393;-59
2022/12/02 00:08:29;;;;;;;;;35.00;29.00;;;;;7.34;68.69;101798.41;5095755;27;45566;-58
2022/12/02 00:10:56;;;;;;;;;38.00;32.00;;;;;7.26;69.04;101779.19;5095921;27;45272;-62
2022/12/02 00:13:27;;;;;;;;;48.50;38.25;;;;;7.37;68.98;101798.31;5096266;27;46093;-59
2022/12/02 00:16:02;;;;;;;;;39.50;33.50;;;;;7.40;69.20;101799.13;5077928;27;45401;-59
2022/12/02 00:18:28;;;;;;;;;47.25;39.25;;;;;7.38;69.31;101789.47;5095623;27;45482;-61
2022/12/02 00:20:54;;;;;;;;;41.25;36.50;;;;;7.33;69.16;101776.38;5098740;27;45527;-58
2022/12/02 00:23:19;;;;;;;;;45.25;39.50;;;;;7.29;69.50;101785.28;5091765;27;46384;-59
2022/12/02 00:25:52;;;;;;;;;43.25;33.00;;;;;7.32;69.85;101789.63;5078683;27;45431;-62
2022/12/02 00:28:18;;;;;;;;;47.75;40.75;;;;;7.29;70.12;101784.38;5095827;27;45533;-60
2022/12/02 00:30:44;;;;;;;;;49.25;39.00;;;;;7.30;69.85;101791.44;5078613;27;45504;-60
2022/12/02 00:33:10;;;;;;;;;43.25;36.25;;;;;7.18;69.91;101766.16;5095847;27;45583;-58
2022/12/02 00:35:36;;;;;;;;;50.00;43.25;;;;;7.17;70.70;101775.00;5111686;27;45697;-62
2022/12/02 00:38:02;;;;;;;;;43.50;39.25;;;;;7.08;70.88;101748.75;5096951;27;45304;-59
2022/12/02 00:40:27;;;;;;;;;36.75;33.25;;;;;7.23;70.50;101776.59;5091576;27;45378;-59
2022/12/02 00:42:52;;;;;;;;;49.50;38.25;;;;;7.18;70.48;101766.16;5095559;27;45859;-59
2022/12/02 00:48:02;;;;;;;;;46.50;39.25;;;;;7.22;70.75;101766.94;5094939;27;45362;-60
2022/12/02 00:50:27;;;;;;;;;37.25;36.00;;;;;7.18;71.12;101755.56;5076833;27;45659;-61
2022/12/02 00:52:53;;;;;;;;;38.00;34.00;;;;;7.08;70.59;101741.66;5094356;27;46560;-57
2022/12/02 00:55:18;;;;;;;;;43.50;39.00;;;;;7.12;70.47;101749.53;5094141;27;45575;-59
2022/12/02 00:57:43;;;;;;;;;43.75;37.00;;;;;7.17;70.70;101752.97;5095653;27;45470;-58
2022/12/02 01:00:10;;;;;;;;;41.25;34.00;;;;;7.17;70.84;101758.25;5099477;27;45223;-60
2022/12/02 01:02:36;;;;;;;;;44.50;40.00;;;;;7.17;70.92;101752.97;5061932;27;47227;-60
2022/12/02 01:05:03;;;;;;;;;54.25;43.00;;;;;7.19;70.77;101756.44;5097906;27;45944;-57
2022/12/02 01:07:28;;;;;;;;;45.75;40.50;;;;;7.21;70.49;101744.03;5114297;27;45499;-58
2022/12/02 01:09:53;;;;;;;;;41.00;36.25;;;;;7.26;70.88;101750.94;5079045;28;45626;-60
2022/12/02 01:12:19;;;;;;;;;45.25;40.50;;;;;7.21;70.53;101733.44;5078972;28;46165;-59
2022/12/02 01:14:44;;;;;;;;;55.25;40.50;;;;;7.28;70.64;101743.81;5078213;27;45515;-60
2022/12/02 01:17:09;;;;;;;;;48.00;33.00;;;;;7.28;70.47;101741.19;5092385;27;45465;-58
2022/12/02 01:19:35;;;;;;;;;49.50;39.25;;;;;7.29;70.62;101744.69;5099338;27;45354;-59
2022/12/02 01:22:00;;;;;;;;;38.75;36.00;;;;;7.03;70.41;101711.81;5094793;27;52639;-61
2022/12/02 01:24:26;;;;;;;;;52.25;45.00;;;;;7.23;70.97;101740.44;5099303;27;45373;-61
2022/12/02 01:26:51;;;;;;;;;46.25;37.75;;;;;7.21;71.13;101744.03;5087835;27;45365;-60
2022/12/02 01:29:17;;;;;;;;;46.00;37.00;;;;;7.24;70.86;101743.94;5078572;27;45466;-61
2022/12/02 01:31:42;;;;;;;;;47.75;39.00;;;;;7.18;70.97;101746.75;5087505;27;47306;-61
2022/12/02 01:34:07;;;;;;;;;50.25;39.75;;;;;6.98;71.36;101726.03;5083492;27;45527;-62
2022/12/02 01:36:33;;;;;;;;;37.75;37.75;;;;;6.98;71.59;101749.84;5086370;27;45472;-61
2022/12/02 01:38:58;;;;;;;;;40.50;36.25;;;;;6.97;71.58;101748.97;5116301;27;45215;-60
2022/12/02 01:41:24;;;;;;;;;43.50;38.00;;;;;6.99;71.80;101755.09;5093705;27;45263;-60
2022/12/02 01:43:50;;;;;;;;;46.00;41.25;;;;;6.97;71.54;101754.28;5099035;27;45255;-61
2022/12/02 01:46:15;;;;;;;;;39.50;35.75;;;;;6.90;71.91;101755.31;5098047;27;45485;-62
2022/12/02 01:48:41;;;;;;;;;33.50;29.75;;;;;6.96;72.12;101760.47;5098383;27;45582;-62
2022/12/02 01:51:06;;;;;;;;;41.75;39.00;;;;;6.97;71.45;101751.63;5098569;27;45973;-59
2022/12/02 01:53:33;;;;;;;;;61.75;43.25;;;;;6.92;71.13;101747.34;5098364;27;45319;-58
2022/12/02 01:55:59;;;;;;;;;58.50;40.50;;;;;6.98;71.63;101753.38;5100298;27;45414;-60
2022/12/02 01:58:27;;;;;;;;;59.00;42.00;;;;;7.04;71.85;101752.38;5084810;27;45612;-63
2022/12/02 02:00:53;;;;;;;;;60.75;43.00;;;;;6.98;71.05;101753.38;5078392;27;48831;-58
2022/12/02 02:03:19;;;;;;;;;60.75;41.25;;;;;6.98;71.31;101757.78;5078191;28;45405;-60
2022/12/02 02:05:46;;;;;;;;;45.50;38.75;;;;;7.00;70.77;101759.47;5091057;27;45525;-60
2022/12/02 02:08:12;;;;;;;;;50.25;36.25;;;;;7.02;71.03;101754.16;5077705;28;45251;-61
2022/12/02 02:10:40;;;;;;;;;45.00;37.25;;;;;6.99;71.50;101755.09;5080753;27;45379;-64
2022/12/02 02:13:08;;;;;;;;;53.25;38.00;;;;;6.95;70.84;101764.00;5098743;27;45687;-62
2022/12/02 02:15:36;;;;;;;;;57.00;42.75;;;;;7.00;71.48;101742.75;5097789;27;45259;-60
2022/12/02 02:18:01;;;;;;;;;51.75;41.25;;;;;7.04;70.96;101747.94;5099307;27;45505;-61
2022/12/02 02:20:27;;;;;;;;;49.50;39.00;;;;;7.04;70.97;101737.38;5098175;27;45639;-61
2022/12/02 02:22:57;;;;;;;;;49.50;41.50;;;;;7.02;70.92;101733.00;5102328;27;45468;-61
2022/12/02 02:25:23;;;;;;;;;54.50;41.25;;;;;6.94;70.81;101730.53;5099937;27;45187;-58
2022/12/02 02:27:53;;;;;;;;;53.50;38.25;;;;;6.90;71.01;101739.47;5120379;27;45170;-61
2022/12/02 02:30:19;;;;;;;;;47.75;39.75;;;;;6.82;71.84;101728.16;5107175;27;46429;-61
2022/12/02 02:32:45;;;;;;;;;45.25;39.00;;;;;6.92;71.48;101735.00;5079671;27;45545;-61
2022/12/02 02:35:11;;;;;;;;;45.00;38.75;;;;;6.85;71.23;101717.53;5097313;27;45635;-60
2022/12/02 02:37:37;;;;;;;;;44.75;40.00;;;;;6.77;71.30;101712.44;5098918;27;45576;-61
2022/12/02 02:40:04;;;;;;;;;56.50;41.00;;;;;6.85;71.40;101725.44;5058012;28;45440;-59
2022/12/02 02:42:29;;;;;;;;;53.75;39.75;;;;;6.86;71.14;101731.63;5086929;27;45343;-58
2022/12/02 02:44:55;;;;;;;;;43.25;29.75;;;;;6.85;71.24;101714.00;5098098;27;45489;-58
2022/12/02 02:47:21;;;;;;;;;47.75;41.50;;;;;6.89;71.42;101716.53;5097944;27;45558;-58
2022/12/02 02:49:46;;;;;;;;;45.50;36.50;;;;;6.90;71.29;101720.94;5084035;27;46439;-57
2022/12/02 02:52:12;;;;;;;;;50.75;42.75;;;;;6.79;70.83;101696.53;5096654;27;45383;-59
2022/12/02 02:54:38;;;;;;;;;47.75;39.25;;;;;6.89;70.95;101718.31;5098500;27;45397;-57
2022/12/02 02:57:03;;;;;;;;;56.00;44.00;;;;;6.81;70.86;101707.94;5116619;27;45391;-58
2022/12/02 02:59:28;;;;;;;;;41.25;35.75;;;;;6.91;71.65;101709.47;5096021;27;45490;-60
2022/12/02 03:01:54;;;;;;;;;53.00;41.00;;;;;6.99;70.97;101712.78;5094748;27;45268;-59
2022/12/02 03:04:22;;;;;;;;;44.00;40.25;;;;;7.03;70.57;101703.88;5061643;27;45656;-57
2022/12/02 03:06:49;;;;;;;;;46.50;37.75;;;;;7.03;70.35;101698.59;5089315;27;45660;-60
2022/12/02 03:09:20;;;;;;;;;48.00;40.25;;;;;6.92;70.94;101692.69;5096870;27;45415;-60
2022/12/02 03:11:47;;;;;;;;;41.50;38.25;;;;;6.93;70.91;101680.34;5079743;27;45468;-59
2022/12/02 03:14:15;;;;;;;;;41.00;38.50;;;;;6.93;70.74;101697.06;5078697;27;45401;-57
2022/12/02 03:16:41;;;;;;;;;54.50;40.25;;;;;6.96;71.32;101699.63;5092437;27;45798;-60
2022/12/02 03:19:07;;;;;;;;;53.50;39.25;;;;;6.87;70.45;101697.19;5095254;27;46360;-62
2022/12/02 03:21:33;;;;;;;;;50.50;40.00;;;;;6.89;71.01;101695.38;5091234;27;45494;-57
2022/12/02 03:24:01;;;;;;;;;47.00;38.50;;;;;6.93;70.98;101694.44;5088772;27;45334;-61
2022/12/02 03:26:27;;;;;;;;;42.50;37.00;;;;;6.92;70.72;101690.03;5076613;27;47111;-64
2022/12/02 03:28:54;;;;;;;;;42.50;35.75;;;;;6.89;70.05;101684.81;5093643;27;45444;-61
2022/12/02 03:31:20;;;;;;;;;43.50;36.75;;;;;6.82;70.74;101688.50;5091303;27;45629;-61
2022/12/02 03:33:47;;;;;;;;;46.50;36.75;;;;;6.81;70.71;101692.06;5096520;27;45362;-59
2022/12/02 03:36:12;;;;;;;;;50.75;41.25;;;;;6.81;71.25;101676.19;5099463;27;45372;-59
2022/12/02 03:38:39;;;;;;;;;48.75;40.00;;;;;6.92;70.34;101686.53;5094039;27;45444;-59
2022/12/02 03:41:06;;;;;;;;;48.00;40.25;;;;;6.97;70.73;101674.06;5087589;27;46106;-60
2022/12/02 03:43:31;;;;;;;;;44.50;38.00;;;;;6.98;70.56;101684.59;5072487;27;45572;-59
2022/12/02 03:45:58;;;;;;;;;61.25;44.25;;;;;7.03;70.32;101676.53;5089998;27;45649;-60
2022/12/02 03:48:24;;;;;;;;;57.25;41.00;;;;;7.02;69.97;101678.31;5083940;27;46016;-57
2022/12/02 03:50:52;;;;;;;;;53.75;42.25;;;;;7.03;70.09;101665.97;5105199;27;45492;-60
2022/12/02 03:53:18;;;;;;;;;48.00;38.50;;;;;7.06;69.67;101666.78;5096492;27;45641;-58
2022/12/02 03:55:44;;;;;;;;;39.00;36.25;;;;;7.04;70.25;101658.00;5095846;27;45458;-59
2022/12/02 03:58:09;;;;;;;;;39.50;37.50;;;;;7.08;70.13;101675.53;5089810;27;46551;-58
2022/12/02 04:00:36;;;;;;;;;40.75;37.50;;;;;7.13;69.89;101669.25;5108329;27;45470;-60
2022/12/02 04:03:02;;;;;;;;;47.00;38.50;;;;;7.12;69.61;101655.16;5093442;27;45291;-59
2022/12/02 04:05:27;;;;;;;;;49.50;36.25;;;;;7.23;69.80;101665.47;5074896;27;45572;-59
2022/12/02 04:07:53;;;;;;;;;46.25;39.50;;;;;7.22;69.41;101655.81;5076735;27;45457;-59
2022/12/02 04:10:18;;;;;;;;;48.25;38.25;;;;;7.20;69.42;101658.50;5095606;27;45419;-59
2022/12/02 04:12:43;;;;;;;;;42.00;38.75;;;;;7.25;69.22;101655.72;5116295;27;45225;-58
2022/12/02 04:15:09;;;;;;;;;43.25;33.75;;;;;7.28;69.45;101655.66;5095337;27;45379;-60
2022/12/02 04:17:35;;;;;;;;;43.25;33.75;;;;;7.32;68.97;101646.75;5077477;27;46040;-58
2022/12/02 04:20:00;;;;;;;;;40.25;37.00;;;;;7.07;69.12;101622.69;5077946;27;45268;-59
2022/12/02 04:22:26;;;;;;;;;48.25;40.50;;;;;7.12;69.57;101633.13;5094651;27;45539;-61
2022/12/02 04:24:51;;;;;;;;;39.50;36.75;;;;;7.09;69.97;101634.94;5087675;27;45263;-58
2022/12/02 04:27:16;;;;;;;;;42.25;31.50;;;;;7.05;69.84;101633.31;5078765;27;47376;-59
2022/12/02 04:29:42;;;;;;;;;49.75;40.25;;;;;6.93;70.32;101620.38;5075126;27;45259;-59
2022/12/02 04:32:07;;;;;;;;;43.00;37.00;;;;;6.88;69.83;101632.81;5100063;27;45264;-59
2022/12/02 04:34:33;;;;;;;;;44.75;35.00;;;;;6.96;69.98;101644.09;5110806;27;45369;-59
2022/12/02 04:36:58;;;;;;;;;47.50;40.75;;;;;6.97;70.01;101640.53;5099537;27;45298;-59
2022/12/02 04:39:24;;;;;;;;;39.00;28.25;;;;;6.94;70.23;101645.91;5076912;27;45504;-61
2022/12/02 04:41:49;;;;;;;;;48.00;40.25;;;;;6.97;70.03;101637.03;5085645;27;45394;-58
2022/12/02 04:44:15;;;;;;;;;45.50;40.50;;;;;6.88;70.35;101630.19;5095456;27;45542;-58
2022/12/02 04:46:40;;;;;;;;;40.00;32.25;;;;;6.90;70.81;101633.69;5099029;27;45429;-57
2022/12/02 04:49:05;;;;;;;;;50.25;36.00;;;;;6.87;70.52;101628.44;5099894;27;45351;-59
2022/12/02 04:51:31;;;;;;;;;43.25;31.50;;;;;6.86;70.29;101633.78;5099328;27;45310;-58
2022/12/02 04:53:57;;;;;;;;;50.25;42.25;;;;;6.79;70.77;101623.34;5082738;27;45411;-58
2022/12/02 04:56:22;;;;;;;;;53.00;39.50;;;;;6.86;70.73;101637.28;5084605;28;46008;-58
2022/12/02 04:58:48;;;;;;;;;50.00;41.00;;;;;6.86;70.42;101631.13;5095529;27;45441;-58
2022/12/02 05:01:13;;;;;;;;;51.25;43.25;;;;;6.80;70.95;101635.66;5089406;27;45318;-59
2022/12/02 05:03:38;;;;;;;;;44.75;36.25;;;;;6.86;70.56;101621.41;5088838;27;45597;-61
2022/12/02 05:06:04;;;;;;;;;38.25;32.75;;;;;6.93;70.89;101628.31;5093653;27;46123;-58
2022/12/02 05:08:30;;;;;;;;;51.50;42.00;;;;;6.91;70.93;101614.25;5075707;27;45981;-57
2022/12/02 05:10:55;;;;;;;;;46.75;38.75;;;;;6.92;70.43;101609.84;5098272;27;45413;-58
2022/12/02 05:13:20;;;;;;;;;49.50;40.50;;;;;6.92;70.71;101616.00;5061732;27;45459;-59
2022/12/02 05:15:45;;;;;;;;;54.00;43.00;;;;;6.93;70.49;101614.22;5087858;27;47202;-59
2022/12/02 05:18:11;;;;;;;;;45.00;41.50;;;;;7.02;70.51;101614.84;5094299;27;45501;-58
2022/12/02 05:20:36;;;;;;;;;51.50;37.00;;;;;7.04;70.31;101615.69;5106382;27;45248;-59
2022/12/02 05:23:02;;;;;;;;;47.75;40.50;;;;;7.01;70.22;101602.53;5099864;27;45199;-58
2022/12/02 05:25:27;;;;;;;;;52.75;44.50;;;;;6.97;70.16;101592.06;5089553;27;45957;-59
2022/12/02 05:27:54;;;;;;;;;48.25;39.25;;;;;7.00;70.23;101598.16;5088988;27;45296;-61
2022/12/02 05:30:19;;;;;;;;;52.75;41.00;;;;;7.00;70.44;101608.72;5096176;27;45497;-62
2022/12/02 05:32:45;;;;;;;;;36.25;29.00;;;;;6.97;70.67;101598.22;5098116;27;45492;-61
2022/12/02 05:35:10;;;;;;;;;43.50;32.75;;;;;6.99;70.49;101601.69;5098583;27;45562;-61
2022/12/02 05:37:35;;;;;;;;;57.25;39.50;;;;;6.97;70.42;101592.06;5119970;27;45354;-62
2022/12/02 05:40:01;;;;;;;;;45.75;38.50;;;;;6.98;70.60;101589.38;5093466;27;45752;-61
2022/12/02 05:42:26;;;;;;;;;54.00;42.25;;;;;6.97;70.72;101577.06;5085763;27;45303;-60
2022/12/02 05:44:52;;;;;;;;;45.75;42.00;;;;;7.05;70.34;101590.97;5078123;27;45668;-59
2022/12/02 05:47:18;;;;;;;;;57.50;42.50;;;;;7.07;70.22;101583.00;5064582;27;46004;-60
2022/12/02 05:49:45;;;;;;;;;60.50;45.25;;;;;6.98;70.18;101578.81;5105913;27;45803;-59
2022/12/02 05:52:21;;;;;;;;;52.00;43.75;;;;;7.04;70.35;101586.59;5087489;27;45325;-61
2022/12/02 05:54:47;;;;;;;;;53.75;40.00;;;;;7.02;70.60;101591.03;5094413;27;46953;-61
2022/12/02 05:57:13;;;;;;;;;54.75;46.75;;;;;6.97;69.98;101577.06;5098121;27;45534;-58
2022/12/02 05:59:38;;;;;;;;;50.50;40.25;;;;;6.95;70.62;101578.88;5090718;27;45614;-60
2022/12/02 06:02:22;;;;;;;;;48.25;41.50;;;;;7.01;70.14;101578.72;5097312;27;45524;-63
2022/12/02 06:04:47;;;;;;;;;41.25;29.25;;;;;7.03;70.69;101576.03;5097293;27;46752;-60
2022/12/02 06:07:13;;;;;;;;;60.00;43.00;;;;;7.07;70.52;101570.66;5097219;27;45530;-62
2022/12/02 06:09:38;;;;;;;;;61.75;47.25;;;;;7.09;70.16;101563.53;5098550;27;45358;-58
2022/12/02 06:12:16;;;;;;;;;51.50;40.75;;;;;7.12;70.10;101567.00;5100059;27;45387;-59
2022/12/02 06:14:50;;;;;;;;;59.50;45.75;;;;;7.00;70.24;101561.13;5096475;27;45477;-62
2022/12/02 06:17:17;;;;;;;;;56.00;43.75;;;;;7.00;70.83;101581.41;5098452;27;45555;-59
2022/12/02 06:19:52;;;;;;;;;63.50;47.25;;;;;7.02;70.49;101569.88;5098474;27;45371;-61
2022/12/02 06:22:26;;;;;;;;;51.00;46.00;;;;;6.98;70.10;101577.94;5092923;27;46919;-60
2022/12/02 06:24:58;;;;;;;;;57.25;45.00;;;;;7.02;70.52;101566.38;5100631;27;46264;-58
2022/12/02 06:27:25;;;;;;;;;62.00;48.25;;;;;7.03;70.31;101554.88;5095845;27;45338;-59
2022/12/02 06:29:58;;;;;;;;;45.25;42.75;;;;;7.09;70.47;101557.38;5102406;27;45464;-61
2022/12/02 06:32:37;;;;;;;;;55.50;41.50;;;;;7.24;70.29;101564.03;5108414;27;45495;-57
2022/12/02 06:35:26;;;;;;;;;60.75;46.50;;;;;7.19;70.35;101561.53;5068914;27;46129;-60
2022/12/02 06:38:01;;;;;;;;;47.00;39.00;;;;;7.02;70.43;101561.06;5088142;27;45231;-60
2022/12/02 06:40:32;;;;;;;;;45.50;37.50;;;;;7.14;70.79;101581.06;5096180;27;45390;-61
2022/12/02 06:42:59;;;;;;;;;59.25;45.00;;;;;7.20;70.58;101572.97;5079655;27;45409;-59
2022/12/02 06:45:30;;;;;;;;;50.00;42.75;;;;;7.22;70.27;101560.56;5097017;27;45448;-58
2022/12/02 06:48:06;;;;;;;;;49.75;39.75;;;;;7.24;70.18;101561.38;5095953;27;45262;-58
2022/12/02 06:50:39;;;;;;;;;55.25;44.50;;;;;7.24;70.39;101556.97;5090713;27;45518;-58
2022/12/02 06:53:16;;;;;;;;;57.00;38.75;;;;;7.27;70.40;101563.94;5095355;27;45583;-55
2022/12/02 06:55:42;;;;;;;;;63.25;44.50;;;;;7.30;70.20;101563.88;5093669;27;45433;-59
2022/12/02 06:58:26;;;;;;;;;60.50;45.25;;;;;7.21;70.34;101558.84;5081145;27;45374;-56
2022/12/02 07:00:52;;;;;;;;;53.75;44.75;;;;;7.19;70.79;101558.88;5096109;27;45307;-58
2022/12/02 07:03:32;;;;;;;;;49.75;42.25;;;;;7.26;70.63;101570.16;5097644;27;45616;-57
2022/12/02 07:06:18;;;;;;;;;56.50;43.50;;;;;7.29;70.28;101562.13;5092173;27;46453;-61
2022/12/02 07:08:45;;;;;;;;;53.50;42.25;;;;;7.17;70.20;101560.69;5093705;27;45377;-59
2022/12/02 07:11:52;;;;;;;;;67.25;45.75;;;;;7.13;70.57;101566.09;5097655;27;45389;-57
2022/12/02 07:14:49;;;;;;;;;56.25;44.25;;;;;7.11;71.22;101558.19;5076769;27;45449;-57
2022/12/02 07:17:26;;;;;;;;;53.75;43.00;;;;;7.14;70.97;101562.53;5076570;28;45550;-58
2022/12/02 07:20:14;;;;;;;;;59.75;43.00;;;;;7.08;70.82;101545.94;5076808;28;45279;-62
2022/12/02 07:22:47;;;;;;;;;36.50;35.25;;;;;7.24;70.55;101569.31;5077147;28;45327;-67
2022/12/02 07:25:31;;;;;;;;;66.75;44.25;;;;;7.28;70.47;101565.69;5092817;27;45185;-62
2022/12/02 07:27:56;;;;;;;;;61.25;44.00;;;;;7.12;71.09;101559.94;5082229;27;46262;-64
2022/12/02 07:30:29;;;;;;;;;58.50;43.50;;;;;6.99;71.28;101564.66;5086393;27;45413;-61
2022/12/02 07:32:55;;;;;;;;;58.00;46.00;;;;;7.03;71.22;101555.78;5093890;27;45420;-64
2022/12/02 07:35:22;;;;;;;;;58.75;45.25;;;;;7.08;71.77;101538.00;5098425;27;45570;-63
2022/12/02 07:37:48;;;;;;;;;65.00;50.25;;;;;7.19;71.35;101539.50;5079152;27;45445;-66
2022/12/02 07:40:15;;;;;;;;;62.00;47.00;;;;;7.27;71.20;101556.00;5097188;27;45456;-62
2022/12/02 07:42:42;;;;;;;;;60.75;43.50;;;;;7.27;71.30;101561.28;5079062;27;45491;-62
2022/12/02 07:45:12;;;;;;;;;56.50;45.50;;;;;7.18;71.67;101564.22;5079251;27;45412;-65
2022/12/02 07:47:37;;;;;;;;;59.25;45.25;;;;;7.24;71.52;101561.38;5085174;27;46021;-65
2022/12/02 07:50:04;;;;;;;;;60.00;47.25;;;;;7.25;71.84;101561.34;5076492;28;45446;-63
2022/12/02 07:52:29;;;;;;;;;63.50;49.50;;;;;7.21;71.68;101564.13;5088962;27;45379;-64
2022/12/02 07:54:55;;;;;;;;;62.00;45.00;;;;;7.16;71.32;101550.13;5096602;27;45549;-61
2022/12/02 07:57:21;;;;;;;;;63.50;43.00;;;;;7.24;71.83;101561.38;5096570;27;46429;-61
2022/12/02 07:59:47;;;;;;;;;60.00;47.00;;;;;7.22;71.34;101550.84;5092111;27;45453;-62
2022/12/02 08:02:12;;;;;;;;;61.25;44.25;;;;;7.11;71.80;101550.25;5097053;27;45395;-62
2022/12/02 08:04:37;;;;;;;;;53.50;47.00;;;;;7.15;71.94;101561.63;5067837;28;45598;-62
2022/12/02 08:07:03;;;;;;;;;62.50;45.25;;;;;7.07;71.67;101546.84;5065801;27;57452;-62
2022/12/02 08:09:29;;;;;;;;;62.75;44.75;;;;;7.05;72.13;101567.19;5095081;27;45403;-64
2022/12/02 08:11:54;;;;;;;;;64.50;47.75;;;;;7.07;71.96;101560.06;5095431;27;45504;-61
2022/12/02 08:14:20;;;;;;;;;59.50;46.25;;;;;7.09;72.17;101560.88;5092852;27;45530;-61
2022/12/02 08:16:45;;;;;;;;;60.75;43.50;;;;;7.02;72.04;101547.84;5100530;27;46244;-61
2022/12/02 08:19:11;;;;;;;;;68.50;50.50;;;;;6.99;72.00;101551.44;5081490;27;45287;-62
2022/12/02 08:21:39;;;;;;;;;56.25;44.25;;;;;6.87;72.46;101554.41;5098838;27;45421;-62
2022/12/02 08:24:05;;;;;;;;;59.25;48.75;;;;;6.85;72.68;101556.22;5099995;27;45638;-61
2022/12/02 08:26:31;;;;;;;;;64.50;45.50;;;;;6.84;73.29;101556.28;5089833;27;46078;-60
2022/12/02 08:28:57;;;;;;;;;63.25;46.50;;;;;6.90;72.58;101566.69;5088463;27;45523;-61
2022/12/02 08:31:23;;;;;;;;;66.50;51.75;;;;;6.83;72.72;101558.03;5100832;27;45484;-61
2022/12/02 08:33:49;;;;;;;;;66.00;54.50;;;;;6.82;72.97;101566.03;5100206;27;45599;-63
2022/12/02 08:36:14;;;;;;;;;61.50;47.00;;;;;6.83;73.20;101567.75;5099662;27;45386;-62
2022/12/02 08:38:41;;;;;;;;;63.25;46.50;;;;;6.88;72.79;101566.72;5098198;27;45640;-63
2022/12/02 08:41:06;;;;;;;;;56.25;40.00;;;;;6.89;72.49;101573.75;5099484;27;45210;-62
2022/12/02 08:43:32;;;;;;;;;65.50;45.75;;;;;6.93;72.66;101558.69;5099851;27;45475;-62
2022/12/02 08:45:58;;;;;;;;;62.25;51.25;;;;;6.93;72.39;101562.19;5098952;27;45356;-62
2022/12/02 08:48:23;;;;;;;;;73.00;50.75;;;;;7.01;72.44;101573.44;5080843;27;45409;-62
2022/12/02 08:50:49;;;;;;;;;67.25;52.25;;;;;7.07;72.14;101567.13;5099280;27;45503;-61
2022/12/02 08:53:14;;;;;;;;;58.00;43.50;;;;;7.07;71.87;101561.84;5099875;27;46209;-61
2022/12/02 08:55:40;;;;;;;;;55.25;43.00;;;;;6.99;71.97;101547.94;5086872;27;45371;-66
2022/12/02 08:58:05;;;;;;;;;62.25;46.50;;;;;7.00;72.09;101549.66;5082855;27;45572;-62
2022/12/02 09:00:34;;;;;;;;;68.50;52.50;;;;;7.03;71.95;101562.81;5079209;27;45881;-62
2022/12/02 09:02:59;;;;;;;;;66.50;49.00;;;;;7.00;72.16;101550.53;5099868;27;45296;-60
2022/12/02 09:05:24;;;;;;;;;69.75;52.25;;;;;6.96;72.62;101543.59;5099177;27;45986;-61
2022/12/02 09:07:54;;;;;;;;;66.50;53.00;;;;;6.95;72.77;101554.22;5099122;27;45295;-61
2022/12/02 09:10:22;;;;;;;;;64.75;52.00;;;;;6.82;72.49;101542.22;5099308;27;45331;-60
2022/12/02 09:12:48;;;;;;;;;72.50;50.75;;;;;6.87;73.00;101549.13;5067913;28;45808;-61
2022/12/02 09:15:14;;;;;;;;;67.50;50.00;;;;;6.94;72.95;101544.56;5079390;27;45441;-61
2022/12/02 09:17:39;;;;;;;;;55.25;45.00;;;;;6.86;72.27;101544.75;5079124;27;45369;-61
2022/12/02 09:20:05;;;;;;;;;63.00;47.75;;;;;6.74;72.73;101543.28;5080405;27;45519;-61
2022/12/02 09:22:31;;;;;;;;;66.25;51.50;;;;;6.81;73.21;101554.56;5087015;27;45505;-60
2022/12/02 09:24:56;;;;;;;;;69.75;52.50;;;;;6.79;73.35;101546.69;5078363;27;45378;-62
2022/12/02 09:27:22;;;;;;;;;67.00;53.00;;;;;6.86;72.88;101539.44;5060497;28;45374;-62
2022/12/02 09:29:47;;;;;;;;;65.00;49.75;;;;;6.93;73.07;101556.03;5073688;27;45374;-62
2022/12/02 09:32:13;;;;;;;;;74.00;57.00;;;;;6.78;72.88;101520.28;5081250;27;45196;-62
2022/12/02 09:34:38;;;;;;;;;74.25;52.75;;;;;7.00;72.52;101541.75;5086489;27;45676;-61
2022/12/02 09:37:04;;;;;;;;;57.50;49.25;;;;;6.99;72.15;101532.94;5078614;27;45421;-61
2022/12/02 09:39:29;;;;;;;;;67.50;48.25;;;;;7.13;72.03;101545.78;5078300;27;45451;-60
2022/12/02 09:41:55;;;;;;;;;73.75;53.75;;;;;7.09;71.78;101539.72;5080584;27;45575;-61
2022/12/02 09:44:20;;;;;;;;;67.25;46.50;;;;;7.02;72.01;101538.13;5098017;27;45873;-61
2022/12/02 09:46:46;;;;;;;;;67.25;51.50;;;;;7.12;70.99;101527.31;5085874;27;45543;-60
2022/12/02 09:49:12;;;;;;;;;68.00;51.00;;;;;7.00;71.45;101539.97;5100536;27;45407;-62
2022/12/02 09:51:38;;;;;;;;;66.25;51.00;;;;;6.94;72.07;101534.84;5113494;27;45466;-62
2022/12/02 09:54:03;;;;;;;;;65.00;49.75;;;;;7.00;71.86;101529.38;5097983;27;45238;-62
2022/12/02 09:56:29;;;;;;;;;68.50;47.00;;;;;7.05;71.74;101529.28;5098436;27;45181;-61
2022/12/02 09:58:55;;;;;;;;;60.50;45.25;;;;;7.00;71.50;101526.72;5099952;27;45185;-63
2022/12/02 10:01:21;;;;;;;;;66.00;48.00;;;;;6.98;71.64;101528.56;5083888;27;45349;-62
2022/12/02 10:03:49;;;;;;;;;63.00;49.25;;;;;7.03;71.39;101533.72;5082662;27;45401;-61
2022/12/02 10:06:32;;;;;;;;;64.75;48.25;;;;;6.95;71.68;101515.41;5100343;27;45396;-61
2022/12/02 10:08:58;;;;;;;;;65.00;50.00;;;;;6.93;71.59;101516.38;5081305;27;45283;-62
2022/12/02 10:11:27;;;;;;;;;68.25;55.25;;;;;7.00;70.86;101521.44;5099248;27;45487;-61
2022/12/02 10:13:55;;;;;;;;;63.50;51.75;;;;;7.08;71.46;101514.19;5098608;27;45284;-61
2022/12/02 10:16:21;;;;;;;;;70.00;51.00;;;;;7.16;71.66;101518.38;5098513;27;45748;-62
2022/12/02 10:18:47;;;;;;;;;71.25;52.25;;;;;7.12;71.01;101514.09;5080202;27;45205;-61
2022/12/02 10:21:12;;;;;;;;;66.75;52.50;;;;;7.14;70.72;101523.72;5080076;27;45681;-62
2022/12/02 10:23:53;;;;;;;;;69.75;54.75;;;;;7.17;69.99;101517.50;5098034;27;45932;-62
2022/12/02 10:26:19;;;;;;;;;67.00;50.75;;;;;7.18;70.51;101516.59;5098027;27;45468;-62
2022/12/02 10:29:17;;;;;;;;;64.75;48.25;;;;;7.25;70.65;101503.13;5095975;27;45378;-61
2022/12/02 10:32:12;;;;;;;;;71.25;54.00;;;;;7.32;70.94;101490.63;5097228;27;45251;-60
2022/12/02 10:34:38;;;;;;;;;70.75;56.00;;;;;7.33;70.33;101485.28;5083735;27;46282;-61
2022/12/02 10:37:17;;;;;;;;;80.25;58.50;;;;;7.35;70.78;101506.41;5098426;27;45592;-60
2022/12/02 10:39:42;;;;;;;;;69.75;55.00;;;;;7.32;70.66;101501.19;5098354;27;45268;-61
2022/12/02 10:42:20;;;;;;;;;73.00;52.75;;;;;7.34;70.88;101499.38;5098674;27;45382;-62
2022/12/02 10:44:46;;;;;;;;;72.75;49.25;;;;;7.25;70.63;101499.63;5097916;27;45274;-61
2022/12/02 10:47:14;;;;;;;;;74.00;56.00;;;;;7.25;70.71;101491.69;5096400;27;45457;-61
2022/12/02 10:49:51;;;;;;;;;70.75;52.00;;;;;7.21;70.78;101482.09;5097625;27;45324;-62
2022/12/02 10:52:22;;;;;;;;;74.25;55.00;;;;;7.09;70.88;101481.53;5097940;27;45439;-61
2022/12/02 10:54:51;;;;;;;;;61.25;48.00;;;;;7.00;71.22;101481.78;5097649;27;45382;-62
2022/12/02 10:57:25;;;;;;;;;71.00;54.00;;;;;6.92;71.18;101462.63;5097467;27;45381;-61
2022/12/02 10:59:54;;;;;;;;;72.00;55.50;;;;;7.04;70.82;101472.88;5097664;27;45392;-61
2022/12/02 11:02:37;;;;;;;;;66.50;47.25;;;;;6.89;71.74;101457.41;5079938;27;45600;-64
2022/12/02 11:05:21;;;;;;;;;66.75;52.00;;;;;6.92;72.10;101465.25;5088026;27;45472;-62
2022/12/02 11:07:53;;;;;;;;;71.00;52.50;;;;;6.92;71.74;101461.75;5096802;27;45420;-61
2022/12/02 11:10:22;;;;;;;;;76.00;52.50;;;;;6.89;71.96;101460.03;5106109;27;45432;-61
2022/12/02 11:12:47;;;;;;;;;69.50;54.00;;;;;6.87;72.01;101463.63;5097725;27;45578;-61
2022/12/02 11:15:52;;;;;;;;;75.50;52.00;;;;;6.83;71.86;101448.78;5097702;27;45406;-62
2022/12/02 11:18:29;;;;;;;;;75.00;57.00;;;;;6.96;71.77;101448.41;5054865;27;45496;-61
2022/12/02 11:21:00;;;;;;;;;80.50;57.75;;;;;7.07;71.38;101448.97;5079031;27;45212;-60
2022/12/02 11:23:31;;;;;;;;;65.25;54.25;;;;;7.12;70.98;101445.31;5077100;27;45371;-61